createdAt,value
2023-03-20T00:00:13.281Z,1.90
2023-03-20T00:00:43.952Z,1.70
2023-03-20T00:01:14.825Z,2.10
2023-03-20T00:01:45.380Z,1.70
2023-03-20T00:02:16.067Z,1.80
2023-03-20T00:02:46.627Z,1.60
2023-03-20T00:03:17.072Z,1.80
2023-03-20T00:03:48.172Z,1.80
2023-03-20T00:04:18.981Z,1.90
2023-03-20T00:04:49.637Z,1.90
2023-03-20T00:05:20.180Z,1.70
2023-03-20T00:05:51.129Z,1.70
2023-03-20T00:06:22.076Z,1.90
2023-03-20T00:06:53.050Z,1.90
2023-03-20T00:07:24.267Z,1.90
2023-03-20T00:07:54.840Z,1.70
2023-03-20T00:08:26.517Z,1.90
2023-03-20T00:08:56.118Z,1.70
2023-03-20T00:09:26.824Z,1.70
2023-03-20T00:09:57.505Z,1.80
2023-03-20T00:10:28.420Z,1.80
2023-03-20T00:10:59.008Z,1.90
2023-03-20T00:11:29.703Z,1.80
2023-03-20T00:12:00.383Z,2.10
2023-03-20T00:12:30.856Z,1.80
2023-03-20T00:13:01.873Z,1.80
2023-03-20T00:13:32.499Z,1.50
2023-03-20T00:14:03.220Z,1.90
2023-03-20T00:14:33.889Z,1.60
2023-03-20T00:15:04.437Z,1.80
2023-03-20T00:15:35.283Z,1.90
2023-03-20T00:16:05.822Z,1.60
2023-03-20T00:16:36.754Z,1.80
2023-03-20T00:17:07.307Z,1.80
2023-03-20T00:17:38.398Z,1.80
2023-03-20T00:18:09.362Z,1.70
2023-03-20T00:18:39.779Z,1.90
2023-03-20T00:19:10.812Z,1.70
2023-03-20T00:19:41.613Z,1.90
2023-03-20T00:20:12.263Z,1.70
2023-03-20T00:20:42.945Z,1.70
2023-03-20T00:21:13.431Z,1.60
2023-03-20T00:21:44.459Z,1.80
2023-03-20T00:22:15.088Z,2.20
2023-03-20T00:22:45.994Z,1.70
2023-03-20T00:23:16.707Z,1.80
2023-03-20T00:24:28.216Z,1.90
2023-03-20T00:24:59.524Z,1.70
2023-03-20T00:25:30.219Z,1.70
2023-03-20T00:26:00.720Z,1.70
2023-03-20T00:26:31.782Z,1.60
2023-03-20T00:27:02.665Z,1.80
2023-03-20T00:27:33.203Z,1.50
2023-03-20T00:28:03.896Z,2.00
2023-03-20T00:28:34.637Z,1.60
2023-03-20T00:29:05.318Z,1.80
2023-03-20T00:29:36.002Z,1.80
2023-03-20T00:30:06.681Z,1.40
2023-03-20T00:30:37.237Z,1.70
2023-03-20T00:31:07.880Z,1.70
2023-03-20T00:31:38.679Z,1.80
2023-03-20T00:32:09.392Z,1.50
2023-03-20T00:32:40.358Z,1.40
2023-03-20T00:33:11.114Z,1.60
2023-03-20T00:33:41.471Z,1.40
2023-03-20T00:34:11.997Z,1.80
2023-03-20T00:34:42.486Z,1.70
2023-03-20T00:35:13.616Z,1.80
2023-03-20T00:35:44.310Z,1.70
2023-03-20T00:36:15.076Z,1.80
2023-03-20T00:36:45.780Z,1.80
2023-03-20T00:37:16.673Z,1.60
2023-03-20T00:37:47.359Z,1.80
2023-03-20T00:38:18.098Z,1.60
2023-03-20T00:38:48.534Z,1.70
2023-03-20T00:39:19.650Z,1.30
2023-03-20T00:39:50.165Z,1.70
2023-03-20T00:40:21.214Z,1.60
2023-03-20T00:40:51.654Z,1.70
2023-03-20T00:41:22.693Z,1.70
2023-03-20T00:41:53.329Z,1.50
2023-03-20T00:42:24.230Z,1.70
2023-03-20T00:42:54.846Z,1.70
2023-03-20T00:43:25.540Z,1.80
2023-03-20T00:43:56.257Z,1.60
2023-03-20T00:44:27.115Z,1.70
2023-03-20T00:44:57.746Z,1.50
2023-03-20T00:45:28.656Z,1.60
2023-03-20T00:45:59.602Z,1.80
2023-03-20T00:46:30.300Z,1.70
2023-03-20T00:47:00.982Z,1.60
2023-03-20T00:47:31.686Z,1.60
2023-03-20T00:48:43.481Z,1.60
2023-03-20T00:49:14.047Z,2.20
2023-03-20T00:49:44.715Z,1.50
2023-03-20T00:50:15.419Z,1.70
2023-03-20T00:50:46.160Z,1.70
2023-03-20T00:51:17.054Z,1.60
2023-03-20T00:51:47.645Z,1.80
2023-03-20T00:52:18.360Z,1.70
2023-03-20T00:52:49.060Z,1.80
2023-03-20T00:53:19.736Z,1.90
2023-03-20T00:53:50.416Z,1.60
2023-03-20T00:54:21.115Z,2.00
2023-03-20T00:54:51.633Z,1.70
2023-03-20T00:55:22.260Z,1.90
2023-03-20T00:55:52.950Z,1.80
2023-03-20T00:56:23.449Z,1.90
2023-03-20T00:56:54.580Z,1.60
2023-03-20T00:57:25.500Z,1.90
2023-03-20T00:57:56.188Z,1.60
2023-03-20T00:58:26.938Z,1.40
2023-03-20T00:58:57.449Z,1.40
2023-03-20T00:59:28.442Z,1.60
2023-03-20T00:59:59.514Z,1.80
2023-03-20T01:04:31.260Z,1.80
2023-03-20T01:05:42.786Z,1.60
2023-03-20T01:06:13.943Z,1.50
2023-03-20T01:06:44.682Z,1.80
2023-03-20T01:07:15.351Z,1.60
2023-03-20T01:07:46.094Z,1.60
2023-03-20T01:08:16.925Z,1.70
2023-03-20T01:08:47.476Z,1.60
2023-03-20T01:09:18.162Z,1.60
2023-03-20T01:09:48.859Z,1.70
2023-03-20T01:10:19.581Z,1.80
2023-03-20T01:10:50.282Z,1.50
2023-03-20T01:11:20.976Z,1.50
2023-03-20T01:11:53.996Z,1.60
2023-03-20T01:12:22.202Z,1.60
2023-03-20T01:12:52.874Z,1.60
2023-03-20T01:13:23.826Z,1.80
2023-03-20T01:13:54.546Z,1.90
2023-03-20T01:14:25.248Z,1.50
2023-03-20T01:14:55.817Z,1.50
2023-03-20T01:15:26.520Z,1.60
2023-03-20T01:15:57.223Z,1.50
2023-03-20T01:16:27.930Z,1.60
2023-03-20T01:16:58.629Z,1.60
2023-03-20T01:17:29.500Z,1.80
2023-03-20T01:18:00.144Z,1.40
2023-03-20T01:18:30.814Z,1.60
2023-03-20T01:19:01.512Z,1.70
2023-03-20T01:19:32.200Z,1.70
2023-03-20T01:20:02.929Z,1.60
2023-03-20T01:20:33.820Z,1.40
2023-03-20T01:24:24.470Z,1.40
2023-03-20T01:24:55.078Z,1.70
2023-03-20T01:25:25.767Z,1.50
2023-03-20T01:25:56.507Z,1.60
2023-03-20T01:26:27.411Z,1.60
2023-03-20T01:26:58.080Z,1.80
2023-03-20T01:27:29.045Z,1.60
2023-03-20T01:27:59.734Z,1.60
2023-03-20T01:28:30.438Z,1.80
2023-03-20T01:29:00.947Z,1.70
2023-03-20T01:29:31.758Z,1.50
2023-03-20T01:30:02.378Z,1.50
2023-03-20T01:30:33.115Z,1.70
2023-03-20T01:32:23.905Z,1.60
2023-03-20T01:33:35.464Z,1.50
2023-03-20T01:34:06.088Z,1.60
2023-03-20T01:34:36.571Z,1.50
2023-03-20T01:35:07.632Z,1.60
2023-03-20T01:35:38.472Z,1.40
2023-03-20T01:36:09.004Z,1.70
2023-03-20T01:36:39.693Z,1.40
2023-03-20T01:37:10.372Z,1.40
2023-03-20T01:37:40.977Z,1.60
2023-03-20T01:38:11.699Z,1.40
2023-03-20T01:38:42.409Z,1.50
2023-03-20T01:39:13.107Z,1.50
2023-03-20T01:39:43.801Z,1.40
2023-03-20T01:40:14.493Z,1.40
2023-03-20T01:40:45.194Z,1.50
2023-03-20T01:41:15.736Z,1.50
2023-03-20T01:41:46.346Z,1.50
2023-03-20T01:42:17.264Z,1.50
2023-03-20T01:42:47.856Z,1.50
2023-03-20T01:43:18.495Z,1.40
2023-03-20T01:43:49.189Z,1.50
2023-03-20T01:44:19.881Z,1.40
2023-03-20T01:44:50.696Z,1.20
2023-03-20T01:45:21.561Z,1.30
2023-03-20T01:45:52.326Z,1.40
2023-03-20T01:46:23.131Z,1.40
2023-03-20T01:46:54.128Z,1.30
2023-03-20T01:47:24.837Z,1.40
2023-03-20T01:47:55.575Z,1.50
2023-03-20T01:48:26.206Z,1.30
2023-03-20T01:48:56.750Z,1.50
2023-03-20T01:49:27.391Z,1.30
2023-03-20T01:49:58.077Z,1.40
2023-03-20T01:50:28.625Z,1.30
2023-03-20T01:50:59.572Z,1.30
2023-03-20T01:51:30.094Z,1.50
2023-03-20T01:52:00.725Z,1.30
2023-03-20T01:52:31.412Z,1.10
2023-03-20T01:53:02.108Z,1.30
2023-03-20T01:53:32.597Z,1.40
2023-03-20T01:54:03.505Z,1.30
2023-03-20T01:54:34.010Z,1.60
2023-03-20T01:55:05.120Z,1.20
2023-03-20T01:55:36.462Z,1.30
2023-03-20T01:56:06.798Z,1.40
2023-03-20T01:56:37.489Z,1.40
2023-03-20T01:57:08.161Z,1.20
2023-03-20T01:57:38.694Z,1.30
2023-03-20T01:58:09.519Z,1.30
2023-03-20T01:59:21.055Z,1.40
2023-03-20T01:59:52.107Z,1.20
2023-03-20T02:00:22.801Z,1.30
2023-03-20T02:00:53.625Z,1.50
2023-03-20T02:01:24.287Z,1.40
2023-03-20T02:01:55.112Z,1.30
2023-03-20T02:02:26.039Z,1.20
2023-03-20T02:02:56.718Z,1.30
2023-03-20T02:03:27.425Z,1.40
2023-03-20T02:03:58.140Z,1.30
2023-03-20T02:06:33.816Z,1.40
2023-03-20T02:07:04.273Z,1.30
2023-03-20T02:07:35.387Z,1.30
2023-03-20T02:08:06.084Z,1.40
2023-03-20T02:08:36.594Z,1.30
2023-03-20T02:09:07.418Z,1.50
2023-03-20T02:09:38.001Z,1.30
2023-03-20T02:10:08.528Z,1.40
2023-03-20T02:11:23.057Z,1.20
2023-03-20T02:11:53.674Z,1.30
2023-03-20T02:12:24.364Z,1.20
2023-03-20T02:12:55.035Z,1.30
2023-03-20T02:13:25.552Z,1.20
2023-03-20T02:13:56.369Z,1.10
2023-03-20T02:14:27.030Z,1.10
2023-03-20T02:14:57.700Z,1.10
2023-03-20T02:15:28.401Z,1.30
2023-03-20T02:15:58.865Z,1.40
2023-03-20T02:16:29.952Z,1.30
2023-03-20T02:17:00.885Z,1.40
2023-03-20T02:17:31.592Z,1.30
2023-03-20T02:18:02.295Z,1.30
2023-03-20T02:18:33.012Z,1.20
2023-03-20T02:19:03.537Z,1.40
2023-03-20T02:19:34.170Z,1.30
2023-03-20T02:20:05.091Z,1.40
2023-03-20T02:20:35.704Z,1.40
2023-03-20T02:21:06.322Z,1.10
2023-03-20T02:21:37.026Z,1.30
2023-03-20T02:22:07.747Z,1.30
2023-03-20T02:22:38.429Z,1.50
2023-03-20T02:23:09.298Z,1.10
2023-03-20T02:23:39.939Z,1.50
2023-03-20T02:24:10.639Z,1.30
2023-03-20T02:24:41.326Z,1.10
2023-03-20T02:25:12.028Z,1.20
2023-03-20T02:25:42.535Z,1.10
2023-03-20T02:26:13.753Z,1.30
2023-03-20T02:26:44.248Z,1.30
2023-03-20T02:27:15.383Z,1.50
2023-03-20T02:27:46.079Z,1.30
2023-03-20T02:28:57.671Z,1.30
2023-03-20T02:29:28.097Z,1.30
2023-03-20T02:29:59.201Z,1.20
2023-03-20T02:30:29.816Z,1.50
2023-03-20T02:31:00.515Z,1.10
2023-03-20T02:31:31.219Z,1.30
2023-03-20T02:32:01.731Z,1.20
2023-03-20T02:32:32.690Z,1.10
2023-03-20T02:33:03.518Z,1.20
2023-03-20T02:33:34.252Z,1.20
2023-03-20T02:34:04.974Z,1.40
2023-03-20T02:34:35.888Z,1.40
2023-03-20T02:35:06.578Z,1.20
2023-03-20T02:35:37.401Z,1.20
2023-03-20T02:36:08.205Z,1.30
2023-03-20T02:36:38.845Z,1.40
2023-03-20T02:37:09.553Z,1.00
2023-03-20T02:37:40.467Z,1.30
2023-03-20T02:38:11.021Z,1.30
2023-03-20T02:38:41.717Z,1.30
2023-03-20T02:39:12.419Z,1.20
2023-03-20T02:39:43.104Z,1.40
2023-03-20T02:40:13.781Z,1.40
2023-03-20T02:40:44.718Z,1.50
2023-03-20T02:41:15.390Z,1.40
2023-03-20T02:41:46.088Z,1.40
2023-03-20T02:42:16.732Z,1.20
2023-03-20T02:42:47.445Z,1.20
2023-03-20T02:43:17.929Z,1.40
2023-03-20T02:43:49.075Z,1.20
2023-03-20T02:44:19.856Z,1.30
2023-03-20T02:44:50.545Z,1.20
2023-03-20T02:45:21.063Z,1.40
2023-03-20T02:45:51.769Z,1.10
2023-03-20T02:46:22.564Z,1.30
2023-03-20T02:46:53.490Z,1.50
2023-03-20T02:47:24.198Z,1.40
2023-03-20T02:47:54.894Z,1.30
2023-03-20T02:48:25.434Z,1.30
2023-03-20T02:48:56.048Z,1.30
2023-03-20T02:49:26.710Z,1.20
2023-03-20T02:49:57.414Z,1.30
2023-03-20T02:50:27.951Z,1.40
2023-03-20T02:50:58.677Z,1.30
2023-03-20T02:51:29.356Z,1.50
2023-03-20T02:52:00.060Z,1.10
2023-03-20T02:52:30.745Z,1.10
2023-03-20T02:53:01.681Z,1.20
2023-03-20T02:53:32.383Z,1.40
2023-03-20T02:54:02.983Z,1.50
2023-03-20T02:54:33.668Z,1.70
2023-03-20T02:55:04.350Z,1.40
2023-03-20T02:55:35.241Z,1.20
2023-03-20T02:56:05.725Z,1.40
2023-03-20T02:56:36.230Z,1.20
2023-03-20T02:57:06.939Z,1.50
2023-03-20T02:57:37.639Z,1.30
2023-03-20T02:58:08.546Z,1.70
2023-03-20T02:58:39.059Z,1.30
2023-03-20T02:59:09.728Z,1.20
2023-03-20T02:59:40.262Z,1.30
2023-03-20T03:00:10.891Z,1.30
2023-03-20T03:00:41.587Z,1.20
2023-03-20T03:01:12.122Z,1.20
2023-03-20T03:01:42.800Z,1.30
2023-03-20T03:02:13.740Z,1.20
2023-03-20T03:02:44.548Z,1.20
2023-03-20T03:03:15.240Z,1.10
2023-03-20T03:03:45.938Z,1.40
2023-03-20T03:04:16.381Z,1.00
2023-03-20T03:04:47.519Z,1.20
2023-03-20T03:05:59.099Z,1.20
2023-03-20T03:06:29.547Z,1.30
2023-03-20T03:07:02.471Z,1.30
2023-03-20T03:07:31.699Z,1.30
2023-03-20T03:08:02.586Z,1.20
2023-03-20T03:08:33.266Z,1.30
2023-03-20T03:09:03.771Z,1.10
2023-03-20T03:09:34.516Z,1.10
2023-03-20T03:10:05.222Z,1.50
2023-03-20T03:10:35.914Z,1.00
2023-03-20T03:11:06.449Z,1.30
2023-03-20T03:11:37.265Z,1.10
2023-03-20T03:12:07.771Z,1.00
2023-03-20T03:12:38.893Z,1.30
2023-03-20T03:13:09.633Z,1.30
2023-03-20T03:13:40.270Z,1.30
2023-03-20T03:14:10.963Z,1.20
2023-03-20T03:14:41.849Z,1.40
2023-03-20T03:15:12.423Z,1.30
2023-03-20T03:15:43.367Z,1.20
2023-03-20T03:16:14.460Z,1.30
2023-03-20T03:16:44.618Z,1.30
2023-03-20T03:17:15.303Z,1.10
2023-03-20T03:17:46.197Z,1.30
2023-03-20T03:18:16.815Z,1.30
2023-03-20T03:18:47.481Z,1.30
2023-03-20T03:19:18.190Z,1.30
2023-03-20T03:19:48.868Z,1.20
2023-03-20T03:20:19.553Z,1.10
2023-03-20T03:20:50.476Z,1.30
2023-03-20T03:21:21.032Z,1.30
2023-03-20T03:21:51.485Z,1.30
2023-03-20T03:22:22.545Z,1.40
2023-03-20T03:22:53.223Z,1.20
2023-03-20T03:23:23.718Z,1.30
2023-03-20T03:23:54.879Z,1.10
2023-03-20T03:24:39.198Z,1.40
2023-03-20T03:24:56.319Z,1.30
2023-03-20T03:25:27.420Z,1.30
2023-03-20T03:25:58.114Z,1.20
2023-03-20T03:26:28.820Z,1.20
2023-03-20T03:26:59.589Z,1.10
2023-03-20T03:27:30.307Z,1.30
2023-03-20T03:28:00.869Z,1.30
2023-03-20T03:28:31.574Z,1.20
2023-03-20T03:29:43.098Z,1.30
2023-03-20T03:30:14.041Z,1.40
2023-03-20T03:30:45.217Z,1.40
2023-03-20T03:31:15.979Z,1.40
2023-03-20T03:31:46.727Z,1.50
2023-03-20T03:32:17.629Z,1.40
2023-03-20T03:32:48.444Z,1.70
2023-03-20T03:34:00.276Z,1.40
2023-03-20T03:34:30.865Z,1.40
2023-03-20T03:35:01.420Z,1.50
2023-03-20T03:35:31.865Z,1.30
2023-03-20T03:36:02.880Z,1.70
2023-03-20T03:36:33.375Z,1.40
2023-03-20T03:37:04.306Z,1.20
2023-03-20T03:37:35.250Z,1.30
2023-03-20T03:38:06.192Z,1.50
2023-03-20T03:38:37.205Z,1.50
2023-03-20T03:39:07.903Z,1.50
2023-03-20T03:39:38.379Z,1.30
2023-03-20T03:40:09.533Z,1.60
2023-03-20T03:40:40.090Z,1.20
2023-03-20T03:41:10.698Z,1.40
2023-03-20T03:41:41.201Z,1.50
2023-03-20T03:42:11.915Z,1.50
2023-03-20T03:42:42.809Z,1.50
2023-03-20T03:43:13.405Z,1.50
2023-03-20T03:43:44.241Z,1.40
2023-03-20T03:44:14.887Z,1.60
2023-03-20T03:44:45.505Z,1.30
2023-03-20T03:45:16.406Z,1.20
2023-03-20T03:45:46.994Z,1.50
2023-03-20T03:46:17.821Z,1.40
2023-03-20T03:46:48.456Z,1.40
2023-03-20T03:51:20.174Z,1.30
2023-03-20T03:51:50.810Z,1.50
2023-03-20T03:52:21.487Z,1.40
2023-03-20T03:52:51.943Z,1.50
2023-03-20T03:53:23.104Z,1.40
2023-03-20T03:54:34.658Z,1.50
2023-03-20T03:55:05.098Z,1.40
2023-03-20T03:55:36.505Z,1.60
2023-03-20T03:56:06.687Z,1.40
2023-03-20T03:56:37.138Z,1.60
2023-03-20T03:57:08.467Z,1.60
2023-03-20T03:57:38.968Z,1.60
2023-03-20T03:58:10.226Z,1.60
2023-03-20T03:58:40.766Z,1.50
2023-03-20T03:59:11.235Z,1.50
2023-03-20T03:59:42.204Z,1.40
2023-03-20T04:00:12.927Z,1.40
2023-03-20T04:00:43.629Z,1.40
2023-03-20T04:01:14.314Z,1.30
2023-03-20T04:01:45.096Z,1.50
2023-03-20T04:02:15.872Z,1.50
2023-03-20T04:02:46.575Z,1.40
2023-03-20T04:03:17.504Z,1.40
2023-03-20T04:03:48.189Z,1.40
2023-03-20T04:04:20.477Z,1.40
2023-03-20T04:04:49.869Z,1.50
2023-03-20T04:05:20.469Z,1.40
2023-03-20T04:05:51.099Z,1.40
2023-03-20T04:06:22.018Z,1.50
2023-03-20T04:06:52.626Z,1.40
2023-03-20T04:07:23.307Z,1.30
2023-03-20T04:07:53.989Z,1.50
2023-03-20T04:08:24.716Z,1.50
2023-03-20T04:08:55.481Z,1.20
2023-03-20T04:09:26.374Z,1.50
2023-03-20T04:09:56.981Z,1.30
2023-03-20T04:10:27.610Z,1.40
2023-03-20T04:10:58.314Z,1.60
2023-03-20T04:11:28.985Z,1.40
2023-03-20T04:11:59.698Z,1.40
2023-03-20T04:12:30.580Z,1.40
2023-03-20T04:13:42.099Z,1.20
2023-03-20T04:14:13.237Z,1.50
2023-03-20T04:14:43.904Z,1.50
2023-03-20T04:15:14.599Z,1.40
2023-03-20T04:15:45.294Z,1.60
2023-03-20T04:16:16.117Z,1.70
2023-03-20T04:16:46.747Z,1.50
2023-03-20T04:17:17.265Z,1.70
2023-03-20T04:17:47.914Z,1.30
2023-03-20T04:18:18.616Z,1.40
2023-03-20T04:18:49.143Z,1.60
2023-03-20T04:19:19.806Z,1.40
2023-03-20T04:19:50.485Z,1.30
2023-03-20T04:20:21.176Z,1.60
2023-03-20T04:20:51.862Z,1.50
2023-03-20T04:21:22.406Z,1.50
2023-03-20T04:21:53.026Z,1.60
2023-03-20T04:22:23.924Z,1.60
2023-03-20T04:22:54.479Z,1.30
2023-03-20T04:23:24.909Z,1.50
2023-03-20T04:23:55.992Z,1.50
2023-03-20T04:24:26.709Z,1.30
2023-03-20T04:24:57.407Z,1.40
2023-03-20T04:25:28.307Z,1.30
2023-03-20T04:25:58.835Z,1.40
2023-03-20T04:26:29.357Z,1.20
2023-03-20T04:26:59.976Z,1.50
2023-03-20T04:27:30.473Z,1.40
2023-03-20T04:28:01.406Z,1.40
2023-03-20T04:28:32.654Z,1.40
2023-03-20T04:29:03.347Z,1.40
2023-03-20T04:29:33.875Z,1.80
2023-03-20T04:30:04.510Z,1.40
2023-03-20T04:30:35.206Z,1.40
2023-03-20T04:31:05.695Z,1.20
2023-03-20T04:31:36.640Z,1.60
2023-03-20T04:32:07.159Z,1.50
2023-03-20T04:32:37.683Z,1.50
2023-03-20T04:33:08.380Z,1.60
2023-03-20T04:33:39.020Z,1.40
2023-03-20T04:34:09.671Z,1.60
2023-03-20T04:34:40.587Z,1.80
2023-03-20T04:35:11.179Z,1.70
2023-03-20T04:35:41.918Z,1.80
2023-03-20T04:36:12.525Z,2.00
2023-03-20T04:36:44.468Z,1.50
2023-03-20T04:37:14.024Z,1.60
2023-03-20T04:37:44.922Z,1.70
2023-03-20T04:38:15.483Z,1.60
2023-03-20T04:38:46.119Z,1.60
2023-03-20T04:39:16.807Z,1.50
2023-03-20T04:39:47.374Z,1.70
2023-03-20T04:40:18.263Z,1.60
2023-03-20T04:40:48.937Z,1.50
2023-03-20T04:41:19.468Z,1.80
2023-03-20T04:41:50.147Z,1.30
2023-03-20T04:42:20.592Z,1.50
2023-03-20T04:42:51.613Z,1.60
2023-03-20T04:43:22.039Z,1.80
2023-03-20T04:43:53.235Z,1.60
2023-03-20T04:44:23.773Z,1.80
2023-03-20T04:44:54.479Z,1.50
2023-03-20T04:45:25.166Z,1.70
2023-03-20T04:45:55.702Z,1.50
2023-03-20T04:46:26.491Z,1.70
2023-03-20T04:46:57.323Z,1.70
2023-03-20T04:47:27.802Z,1.80
2023-03-20T04:47:58.815Z,1.50
2023-03-20T04:48:29.325Z,1.60
2023-03-20T04:49:00.025Z,1.50
2023-03-20T04:49:30.730Z,1.70
2023-03-20T04:50:01.634Z,1.60
2023-03-20T04:50:32.376Z,1.80
2023-03-20T04:51:03.063Z,1.40
2023-03-20T04:51:33.551Z,1.70
2023-03-20T04:52:04.632Z,1.70
2023-03-20T04:52:35.237Z,1.50
2023-03-20T04:53:06.362Z,1.80
2023-03-20T04:53:36.383Z,1.80
2023-03-20T04:54:07.470Z,1.80
2023-03-20T04:54:38.013Z,1.50
2023-03-20T04:55:08.597Z,1.60
2023-03-20T04:55:39.119Z,1.60
2023-03-20T04:56:09.891Z,1.60
2023-03-20T04:56:40.405Z,1.80
2023-03-20T04:57:11.081Z,1.70
2023-03-20T04:57:41.584Z,1.50
2023-03-20T04:58:12.216Z,1.40
2023-03-20T04:58:42.906Z,1.80
2023-03-20T05:01:30.583Z,1.50
2023-03-20T05:02:01.057Z,1.60
2023-03-20T05:02:32.197Z,1.80
2023-03-20T05:03:02.882Z,1.80
2023-03-20T05:03:33.541Z,1.70
2023-03-20T05:04:04.329Z,1.80
2023-03-20T05:04:35.007Z,2.00
2023-03-20T05:05:05.781Z,1.80
2023-03-20T05:05:37.233Z,1.80
2023-03-20T05:06:07.464Z,1.60
2023-03-20T05:06:38.179Z,1.90
2023-03-20T05:07:08.872Z,1.90
2023-03-20T05:07:39.593Z,2.10
2023-03-20T05:08:10.250Z,1.90
2023-03-20T05:08:40.928Z,1.70
2023-03-20T05:09:11.379Z,1.80
2023-03-20T05:09:42.355Z,1.80
2023-03-20T05:10:13.348Z,1.80
2023-03-20T05:10:44.303Z,2.00
2023-03-20T05:11:15.253Z,1.90
2023-03-20T05:11:46.355Z,1.60
2023-03-20T05:12:16.819Z,1.80
2023-03-20T05:12:47.808Z,1.80
2023-03-20T05:13:18.749Z,2.00
2023-03-20T05:13:49.660Z,1.80
2023-03-20T05:14:20.593Z,1.80
2023-03-20T05:14:51.759Z,2.00
2023-03-20T05:15:22.252Z,1.70
2023-03-20T05:15:53.235Z,2.00
2023-03-20T05:16:24.307Z,1.70
2023-03-20T05:16:54.907Z,1.60
2023-03-20T05:17:25.861Z,2.10
2023-03-20T05:17:57.009Z,1.80
2023-03-20T05:18:27.510Z,1.80
2023-03-20T05:18:58.709Z,2.20
2023-03-20T05:19:29.393Z,2.20
2023-03-20T05:20:00.078Z,1.80
2023-03-20T05:20:30.569Z,2.30
2023-03-20T05:21:01.691Z,1.70
2023-03-20T05:21:32.161Z,1.60
2023-03-20T05:22:03.121Z,1.70
2023-03-20T05:22:34.028Z,2.20
2023-03-20T05:23:06.364Z,1.90
2023-03-20T05:23:35.480Z,2.00
2023-03-20T05:24:06.955Z,2.00
2023-03-20T05:24:37.557Z,2.10
2023-03-20T05:25:08.052Z,1.90
2023-03-20T05:25:38.974Z,1.90
2023-03-20T05:26:09.938Z,1.90
2023-03-20T05:26:40.904Z,1.90
2023-03-20T05:27:12.011Z,2.10
2023-03-20T05:27:42.472Z,1.90
2023-03-20T05:28:13.437Z,2.00
2023-03-20T05:28:44.537Z,2.00
2023-03-20T05:29:14.980Z,2.00
2023-03-20T05:29:46.024Z,1.90
2023-03-20T05:30:16.839Z,1.80
2023-03-20T05:30:47.344Z,1.70
2023-03-20T05:31:17.879Z,2.20
2023-03-20T05:31:48.550Z,2.10
2023-03-20T05:32:19.016Z,1.80
2023-03-20T05:32:50.060Z,1.90
2023-03-20T05:33:20.744Z,1.90
2023-03-20T05:33:51.208Z,2.10
2023-03-20T05:34:22.076Z,2.10
2023-03-20T05:34:53.035Z,2.00
2023-03-20T05:35:23.700Z,1.90
2023-03-20T05:35:54.392Z,1.80
2023-03-20T05:36:25.235Z,1.90
2023-03-20T05:37:36.689Z,1.90
2023-03-20T05:38:07.768Z,2.00
2023-03-20T05:38:38.402Z,2.10
2023-03-20T05:39:08.887Z,2.40
2023-03-20T05:39:39.542Z,2.20
2023-03-20T05:40:10.233Z,2.00
2023-03-20T05:40:40.811Z,1.90
2023-03-20T05:41:11.439Z,2.00
2023-03-20T05:41:43.485Z,2.00
2023-03-20T05:42:12.977Z,1.80
2023-03-20T05:42:43.647Z,2.00
2023-03-20T05:43:14.322Z,2.30
2023-03-20T05:43:44.790Z,1.80
2023-03-20T05:44:15.841Z,2.10
2023-03-20T05:44:46.491Z,1.90
2023-03-20T05:45:17.161Z,2.10
2023-03-20T05:45:47.706Z,2.00
2023-03-20T05:46:18.561Z,2.50
2023-03-20T05:46:49.160Z,2.10
2023-03-20T05:47:19.735Z,2.10
2023-03-20T05:47:50.474Z,2.10
2023-03-20T05:48:21.109Z,1.80
2023-03-20T05:48:51.682Z,2.00
2023-03-20T05:49:22.547Z,1.90
2023-03-20T05:49:53.088Z,2.10
2023-03-20T05:50:23.732Z,1.80
2023-03-20T05:50:54.208Z,2.00
2023-03-20T05:51:25.253Z,2.20
2023-03-20T05:51:55.922Z,2.20
2023-03-20T05:52:26.546Z,2.00
2023-03-20T05:52:57.091Z,2.20
2023-03-20T05:53:27.757Z,1.80
2023-03-20T05:53:58.389Z,2.20
2023-03-20T05:54:28.982Z,2.10
2023-03-20T05:54:59.625Z,1.90
2023-03-20T05:55:30.301Z,1.90
2023-03-20T05:56:00.782Z,2.10
2023-03-20T05:56:31.830Z,2.20
2023-03-20T05:57:02.292Z,2.20
2023-03-20T05:57:32.962Z,2.00
2023-03-20T05:58:03.688Z,2.20
2023-03-20T05:58:34.525Z,2.30
2023-03-20T05:59:05.096Z,1.90
2023-03-20T05:59:35.745Z,2.20
2023-03-20T06:00:06.384Z,2.00
2023-03-20T06:00:36.937Z,1.90
2023-03-20T06:01:07.595Z,2.00
2023-03-20T06:01:38.307Z,2.30
2023-03-20T06:02:08.871Z,2.40
2023-03-20T06:02:39.518Z,2.50
2023-03-20T06:03:10.257Z,2.40
2023-03-20T06:03:40.993Z,2.20
2023-03-20T06:04:11.727Z,2.10
2023-03-20T06:04:42.531Z,2.30
2023-03-20T06:05:13.083Z,1.90
2023-03-20T06:05:43.742Z,2.40
2023-03-20T06:06:14.176Z,2.40
2023-03-20T06:07:29.086Z,2.30
2023-03-20T06:08:00.145Z,2.30
2023-03-20T06:08:30.785Z,2.40
2023-03-20T06:09:01.436Z,2.00
2023-03-20T06:09:32.166Z,2.30
2023-03-20T06:10:02.920Z,2.20
2023-03-20T06:10:33.398Z,2.30
2023-03-20T06:11:04.458Z,2.50
2023-03-20T06:11:37.461Z,2.10
2023-03-20T06:13:30.740Z,2.20
2023-03-20T06:14:01.395Z,2.20
2023-03-20T06:14:32.038Z,2.20
2023-03-20T06:15:02.481Z,2.00
2023-03-20T06:15:33.901Z,2.30
2023-03-20T06:16:04.456Z,2.50
2023-03-20T06:16:34.997Z,2.90
2023-03-20T06:17:05.631Z,2.60
2023-03-20T06:17:36.091Z,1.90
2023-03-20T06:18:07.181Z,2.30
2023-03-20T06:18:37.826Z,2.60
2023-03-20T06:19:08.502Z,2.30
2023-03-20T06:19:38.999Z,2.30
2023-03-20T06:20:09.642Z,2.10
2023-03-20T06:20:40.133Z,2.30
2023-03-20T06:21:11.155Z,2.40
2023-03-20T06:21:41.547Z,2.20
2023-03-20T06:22:53.460Z,2.20
2023-03-20T06:23:24.610Z,2.40
2023-03-20T06:23:55.287Z,2.10
2023-03-20T06:24:26.040Z,2.30
2023-03-20T06:24:57.041Z,2.10
2023-03-20T06:25:27.414Z,2.40
2023-03-20T06:25:57.916Z,2.10
2023-03-20T06:26:28.576Z,2.30
2023-03-20T06:26:59.230Z,2.20
2023-03-20T06:27:29.701Z,2.70
2023-03-20T06:28:00.666Z,2.10
2023-03-20T06:28:31.444Z,2.10
2023-03-20T06:29:01.959Z,2.30
2023-03-20T06:29:32.414Z,2.10
2023-03-20T06:30:03.340Z,2.10
2023-03-20T06:30:34.302Z,2.30
2023-03-20T06:31:05.526Z,2.40
2023-03-20T06:31:36.364Z,2.30
2023-03-20T06:32:07.040Z,2.20
2023-03-20T06:32:37.665Z,2.00
2023-03-20T06:33:08.506Z,2.10
2023-03-20T06:33:39.170Z,2.30
2023-03-20T06:34:10.013Z,2.40
2023-03-20T06:34:40.812Z,2.30
2023-03-20T06:35:11.477Z,2.00
2023-03-20T06:35:42.190Z,2.40
2023-03-20T06:36:12.842Z,2.20
2023-03-20T06:36:45.245Z,2.20
2023-03-20T06:37:14.062Z,1.90
2023-03-20T06:37:44.881Z,2.00
2023-03-20T06:38:15.530Z,2.30
2023-03-20T06:38:46.191Z,2.30
2023-03-20T06:39:18.541Z,2.20
2023-03-20T06:39:47.678Z,2.10
2023-03-20T06:40:18.313Z,2.20
2023-03-20T06:40:49.131Z,2.30
2023-03-20T06:41:33.871Z,2.40
2023-03-20T06:41:51.322Z,2.60
2023-03-20T06:42:20.969Z,2.00
2023-03-20T06:42:51.707Z,2.30
2023-03-20T06:43:22.592Z,2.20
2023-03-20T06:43:53.062Z,2.10
2023-03-20T06:44:24.176Z,2.20
2023-03-20T06:44:54.801Z,2.10
2023-03-20T06:45:25.413Z,2.20
2023-03-20T06:45:55.975Z,2.10
2023-03-20T06:46:26.877Z,2.00
2023-03-20T06:46:57.654Z,2.00
2023-03-20T06:47:28.082Z,2.10
2023-03-20T06:47:59.093Z,2.30
2023-03-20T06:48:30.078Z,2.20
2023-03-20T06:49:01.046Z,2.30
2023-03-20T06:49:32.142Z,2.40
2023-03-20T06:50:02.699Z,2.40
2023-03-20T06:50:33.338Z,2.10
2023-03-20T06:51:03.823Z,2.00
2023-03-20T06:51:34.994Z,1.90
2023-03-20T06:52:05.798Z,2.20
2023-03-20T06:52:36.519Z,2.20
2023-03-20T06:53:06.974Z,2.00
2023-03-20T06:53:38.119Z,2.00
2023-03-20T06:54:08.677Z,2.00
2023-03-20T06:54:39.114Z,1.90
2023-03-20T06:55:10.188Z,2.20
2023-03-20T06:55:40.834Z,2.10
2023-03-20T06:56:11.344Z,1.90
2023-03-20T06:56:42.240Z,2.10
2023-03-20T06:57:15.274Z,2.10
2023-03-20T06:57:44.159Z,2.00
2023-03-20T06:58:14.660Z,2.00
2023-03-20T06:58:45.807Z,2.00
2023-03-20T06:59:16.288Z,2.20
2023-03-20T06:59:46.876Z,1.90
2023-03-20T07:00:17.381Z,2.40
2023-03-20T07:00:48.286Z,1.80
2023-03-20T07:01:19.308Z,1.90
2023-03-20T07:01:50.116Z,1.90
2023-03-20T07:02:20.974Z,2.00
2023-03-20T07:02:51.439Z,2.00
2023-03-20T07:03:22.434Z,2.20
2023-03-20T07:03:53.466Z,1.90
2023-03-20T07:04:24.258Z,1.90
2023-03-20T07:04:55.473Z,2.20
2023-03-20T07:05:26.133Z,2.20
2023-03-20T07:05:56.658Z,2.00
2023-03-20T07:06:27.653Z,2.20
2023-03-20T07:06:58.178Z,2.10
2023-03-20T07:07:28.639Z,2.10
2023-03-20T07:07:59.837Z,2.30
2023-03-20T07:08:30.319Z,2.20
2023-03-20T07:09:01.265Z,2.20
2023-03-20T07:09:32.175Z,2.20
2023-03-20T07:10:03.141Z,2.00
2023-03-20T07:10:34.071Z,2.30
2023-03-20T07:11:05.142Z,1.90
2023-03-20T07:11:35.639Z,2.30
2023-03-20T07:12:06.630Z,1.90
2023-03-20T07:12:37.317Z,2.00
2023-03-20T07:13:07.979Z,1.90
2023-03-20T07:13:38.468Z,2.10
2023-03-20T07:14:09.588Z,2.10
2023-03-20T07:14:40.541Z,1.90
2023-03-20T07:15:11.055Z,2.10
2023-03-20T07:15:53.866Z,2.20
2023-03-20T07:16:13.515Z,1.90
2023-03-20T07:16:43.264Z,1.90
2023-03-20T07:17:13.804Z,1.90
2023-03-20T07:17:44.742Z,1.80